sensor_id;sensor_type;location;lat;lon;timestamp;pressure;altitude;pressure_sealevel;temperature
64960;BMP180;51487;52.266;10.542;2023-02-02T00:01:25;100338.00;;;4.50
64960;BMP180;51487;52.266;10.542;2023-02-02T00:03:52;100333.00;;;4.50
64960;BMP180;51487;52.266;10.542;2023-02-02T00:06:19;100350.00;;;4.40
64960;BMP180;51487;52.266;10.542;2023-02-02T00:08:46;100356.00;;;4.30
64960;BMP180;51487;52.266;10.542;2023-02-02T00:11:12;100348.00;;;4.30
64960;BMP180;51487;52.266;10.542;2023-02-02T00:13:38;100349.00;;;4.30
64960;BMP180;51487;52.266;10.542;2023-02-02T00:18:57;100342.00;;;4.20
64960;BMP180;51487;52.266;10.542;2023-02-02T00:21:24;100347.00;;;4.20
64960;BMP180;51487;52.266;10.542;2023-02-02T00:23:51;100337.00;;;4.20
64960;BMP180;51487;52.266;10.542;2023-02-02T00:26:17;100340.00;;;4.20
64960;BMP180;51487;52.266;10.542;2023-02-02T00:28:43;100348.00;;;4.30
64960;BMP180;51487;52.266;10.542;2023-02-02T00:31:10;100345.00;;;4.40
64960;BMP180;51487;52.266;10.542;2023-02-02T00:33:36;100345.00;;;4.40
64960;BMP180;51487;52.266;10.542;2023-02-02T00:36:01;100333.00;;;4.50
64960;BMP180;51487;52.266;10.542;2023-02-02T00:38:29;100336.00;;;4.50
64960;BMP180;51487;52.266;10.542;2023-02-02T00:40:54;100345.00;;;4.50
64960;BMP180;51487;52.266;10.542;2023-02-02T00:43:20;100341.00;;;4.50
64960;BMP180;51487;52.266;10.542;2023-02-02T00:45:46;100333.00;;;4.40
64960;BMP180;51487;52.266;10.542;2023-02-02T00:48:12;100348.00;;;4.50
64960;BMP180;51487;52.266;10.542;2023-02-02T00:50:37;100339.00;;;4.40
64960;BMP180;51487;52.266;10.542;2023-02-02T00:53:03;100338.00;;;4.50
64960;BMP180;51487;52.266;10.542;2023-02-02T00:55:29;100348.00;;;4.40
64960;BMP180;51487;52.266;10.542;2023-02-02T00:57:54;100341.00;;;4.30
64960;BMP180;51487;52.266;10.542;2023-02-02T01:00:22;100342.00;;;4.30
64960;BMP180;51487;52.266;10.542;2023-02-02T01:02:50;100336.00;;;4.30
64960;BMP180;51487;52.266;10.542;2023-02-02T01:05:16;100339.00;;;4.20
64960;BMP180;51487;52.266;10.542;2023-02-02T01:07:43;100348.00;;;4.20
64960;BMP180;51487;52.266;10.542;2023-02-02T01:10:13;100360.00;;;4.20
64960;BMP180;51487;52.266;10.542;2023-02-02T01:12:41;100361.00;;;4.20
64960;BMP180;51487;52.266;10.542;2023-02-02T01:15:08;100358.00;;;4.10
64960;BMP180;51487;52.266;10.542;2023-02-02T01:17:34;100354.00;;;4.20
64960;BMP180;51487;52.266;10.542;2023-02-02T01:20:00;100368.00;;;4.20
64960;BMP180;51487;52.266;10.542;2023-02-02T01:22:25;100375.00;;;4.30
64960;BMP180;51487;52.266;10.542;2023-02-02T01:24:51;100373.00;;;4.30
64960;BMP180;51487;52.266;10.542;2023-02-02T01:27:17;100374.00;;;4.30
64960;BMP180;51487;52.266;10.542;2023-02-02T01:29:42;100380.00;;;4.30
64960;BMP180;51487;52.266;10.542;2023-02-02T01:32:08;100394.00;;;4.40
64960;BMP180;51487;52.266;10.542;2023-02-02T01:34:34;100374.00;;;4.40
64960;BMP180;51487;52.266;10.542;2023-02-02T01:37:00;100386.00;;;4.40
64960;BMP180;51487;52.266;10.542;2023-02-02T01:39:26;100393.00;;;4.40
64960;BMP180;51487;52.266;10.542;2023-02-02T01:41:51;100374.00;;;4.30
64960;BMP180;51487;52.266;10.542;2023-02-02T01:47:18;100406.00;;;4.20
64960;BMP180;51487;52.266;10.542;2023-02-02T01:49:46;100405.00;;;4.10
64960;BMP180;51487;52.266;10.542;2023-02-02T01:52:14;100405.00;;;4.10
64960;BMP180;51487;52.266;10.542;2023-02-02T01:54:48;100410.00;;;4.10
64960;BMP180;51487;52.266;10.542;2023-02-02T01:57:32;100409.00;;;4.10
64960;BMP180;51487;52.266;10.542;2023-02-02T02:00:19;100392.00;;;4.10
64960;BMP180;51487;52.266;10.542;2023-02-02T02:02:54;100400.00;;;4.00
64960;BMP180;51487;52.266;10.542;2023-02-02T02:05:29;100411.00;;;4.00
64960;BMP180;51487;52.266;10.542;2023-02-02T02:10:54;100416.00;;;3.90
64960;BMP180;51487;52.266;10.542;2023-02-02T02:13:22;100421.00;;;3.90
64960;BMP180;51487;52.266;10.542;2023-02-02T02:16:35;100422.00;;;3.90
64960;BMP180;51487;52.266;10.542;2023-02-02T02:39:57;100432.00;;;4.00
64960;BMP180;51487;52.266;10.542;2023-02-02T02:42:34;100445.00;;;3.90
64960;BMP180;51487;52.266;10.542;2023-02-02T02:45:04;100437.00;;;3.90
64960;BMP180;51487;52.266;10.542;2023-02-02T02:47:32;100428.00;;;3.90
64960;BMP180;51487;52.266;10.542;2023-02-02T02:49:59;100449.00;;;3.90
64960;BMP180;51487;52.266;10.542;2023-02-02T02:52:25;100456.00;;;4.00
64960;BMP180;51487;52.266;10.542;2023-02-02T02:54:54;100465.00;;;3.90
64960;BMP180;51487;52.266;10.542;2023-02-02T03:09:30;100466.00;;;4.10
64960;BMP180;51487;52.266;10.542;2023-02-02T03:12:00;100467.00;;;4.00
64960;BMP180;51487;52.266;10.542;2023-02-02T03:14:26;100467.00;;;4.00
64960;BMP180;51487;52.266;10.542;2023-02-02T03:16:52;100471.00;;;4.00
64960;BMP180;51487;52.266;10.542;2023-02-02T03:19:17;100473.00;;;3.90
64960;BMP180;51487;52.266;10.542;2023-02-02T03:21:43;100465.00;;;3.90
64960;BMP180;51487;52.266;10.542;2023-02-02T03:24:09;100475.00;;;3.90
64960;BMP180;51487;52.266;10.542;2023-02-02T03:26:35;100474.00;;;3.80
64960;BMP180;51487;52.266;10.542;2023-02-02T03:29:02;100474.00;;;3.80
64960;BMP180;51487;52.266;10.542;2023-02-02T03:31:28;100492.00;;;3.70
64960;BMP180;51487;52.266;10.542;2023-02-02T03:33:55;100493.00;;;3.70
64960;BMP180;51487;52.266;10.542;2023-02-02T03:36:21;100480.00;;;3.80
64960;BMP180;51487;52.266;10.542;2023-02-02T03:38:46;100492.00;;;3.70
64960;BMP180;51487;52.266;10.542;2023-02-02T03:41:12;100500.00;;;3.60
64960;BMP180;51487;52.266;10.542;2023-02-02T03:43:37;100508.00;;;3.70
64960;BMP180;51487;52.266;10.542;2023-02-02T03:46:06;100516.00;;;3.70
64960;BMP180;51487;52.266;10.542;2023-02-02T03:48:36;100521.00;;;3.70
64960;BMP180;51487;52.266;10.542;2023-02-02T03:51:11;100518.00;;;3.80
64960;BMP180;51487;52.266;10.542;2023-02-02T03:53:39;100527.00;;;3.80
64960;BMP180;51487;52.266;10.542;2023-02-02T03:56:08;100532.00;;;3.90
64960;BMP180;51487;52.266;10.542;2023-02-02T03:58:34;100535.00;;;3.90
64960;BMP180;51487;52.266;10.542;2023-02-02T04:01:08;100523.00;;;3.90
64960;BMP180;51487;52.266;10.542;2023-02-02T04:03:36;100541.00;;;3.80
64960;BMP180;51487;52.266;10.542;2023-02-02T04:06:02;100537.00;;;3.80
64960;BMP180;51487;52.266;10.542;2023-02-02T04:08:27;100549.00;;;3.80
64960;BMP180;51487;52.266;10.542;2023-02-02T04:10:54;100535.00;;;3.70
64960;BMP180;51487;52.266;10.542;2023-02-02T04:13:19;100542.00;;;3.70
64960;BMP180;51487;52.266;10.542;2023-02-02T04:15:45;100553.00;;;3.70
64960;BMP180;51487;52.266;10.542;2023-02-02T04:18:11;100558.00;;;3.70
64960;BMP180;51487;52.266;10.542;2023-02-02T04:20:36;100548.00;;;3.70
64960;BMP180;51487;52.266;10.542;2023-02-02T04:23:02;100556.00;;;3.70
64960;BMP180;51487;52.266;10.542;2023-02-02T04:25:27;100556.00;;;3.70
64960;BMP180;51487;52.266;10.542;2023-02-02T04:27:53;100560.00;;;3.60
64960;BMP180;51487;52.266;10.542;2023-02-02T04:30:19;100555.00;;;3.70
64960;BMP180;51487;52.266;10.542;2023-02-02T04:32:45;100568.00;;;3.60
64960;BMP180;51487;52.266;10.542;2023-02-02T04:35:11;100560.00;;;3.70
64960;BMP180;51487;52.266;10.542;2023-02-02T04:37:36;100565.00;;;3.70
64960;BMP180;51487;52.266;10.542;2023-02-02T04:40:02;100562.00;;;3.70
64960;BMP180;51487;52.266;10.542;2023-02-02T04:42:28;100574.00;;;3.60
64960;BMP180;51487;52.266;10.542;2023-02-02T04:44:56;100574.00;;;3.60
64960;BMP180;51487;52.266;10.542;2023-02-02T04:47:21;100582.00;;;3.70
64960;BMP180;51487;52.266;10.542;2023-02-02T04:49:47;100572.00;;;3.70
64960;BMP180;51487;52.266;10.542;2023-02-02T04:52:12;100595.00;;;3.70
64960;BMP180;51487;52.266;10.542;2023-02-02T04:54:38;100582.00;;;3.70
64960;BMP180;51487;52.266;10.542;2023-02-02T04:57:03;100595.00;;;3.80
64960;BMP180;51487;52.266;10.542;2023-02-02T04:59:29;100592.00;;;3.80
64960;BMP180;51487;52.266;10.542;2023-02-02T05:02:02;100593.00;;;3.70
64960;BMP180;51487;52.266;10.542;2023-02-02T05:04:28;100574.00;;;3.70
64960;BMP180;51487;52.266;10.542;2023-02-02T05:06:53;100592.00;;;3.80
64960;BMP180;51487;52.266;10.542;2023-02-02T05:09:19;100594.00;;;3.80
64960;BMP180;51487;52.266;10.542;2023-02-02T05:11:44;100595.00;;;3.90
64960;BMP180;51487;52.266;10.542;2023-02-02T05:14:10;100587.00;;;3.90
64960;BMP180;51487;52.266;10.542;2023-02-02T05:16:36;100600.00;;;4.00
64960;BMP180;51487;52.266;10.542;2023-02-02T05:19:02;100593.00;;;4.00
64960;BMP180;51487;52.266;10.542;2023-02-02T05:21:27;100610.00;;;4.00
64960;BMP180;51487;52.266;10.542;2023-02-02T05:23:53;100613.00;;;3.90
64960;BMP180;51487;52.266;10.542;2023-02-02T05:26:23;100604.00;;;3.90
64960;BMP180;51487;52.266;10.542;2023-02-02T05:28:50;100620.00;;;3.80
64960;BMP180;51487;52.266;10.542;2023-02-02T05:31:16;100614.00;;;3.80
64960;BMP180;51487;52.266;10.542;2023-02-02T05:33:42;100630.00;;;3.80
64960;BMP180;51487;52.266;10.542;2023-02-02T05:36:09;100632.00;;;3.80
64960;BMP180;51487;52.266;10.542;2023-02-02T05:38:34;100622.00;;;3.90
64960;BMP180;51487;52.266;10.542;2023-02-02T05:41:00;100621.00;;;3.80
64960;BMP180;51487;52.266;10.542;2023-02-02T05:43:28;100632.00;;;3.90
64960;BMP180;51487;52.266;10.542;2023-02-02T05:45:54;100626.00;;;3.90
64960;BMP180;51487;52.266;10.542;2023-02-02T05:48:20;100638.00;;;3.80
64960;BMP180;51487;52.266;10.542;2023-02-02T05:50:54;100639.00;;;3.90
64960;BMP180;51487;52.266;10.542;2023-02-02T05:53:27;100643.00;;;4.00
64960;BMP180;51487;52.266;10.542;2023-02-02T05:55:53;100639.00;;;4.00
64960;BMP180;51487;52.266;10.542;2023-02-02T05:58:19;100640.00;;;3.90
64960;BMP180;51487;52.266;10.542;2023-02-02T06:00:44;100637.00;;;3.90
64960;BMP180;51487;52.266;10.542;2023-02-02T06:03:10;100646.00;;;3.90
64960;BMP180;51487;52.266;10.542;2023-02-02T06:05:37;100640.00;;;3.90
64960;BMP180;51487;52.266;10.542;2023-02-02T06:08:03;100643.00;;;4.00
64960;BMP180;51487;52.266;10.542;2023-02-02T06:10:29;100639.00;;;4.00
64960;BMP180;51487;52.266;10.542;2023-02-02T06:12:56;100657.00;;;4.00
64960;BMP180;51487;52.266;10.542;2023-02-02T06:15:22;100653.00;;;4.00
64960;BMP180;51487;52.266;10.542;2023-02-02T06:17:48;100650.00;;;4.00
64960;BMP180;51487;52.266;10.542;2023-02-02T06:20:14;100648.00;;;4.00
64960;BMP180;51487;52.266;10.542;2023-02-02T06:22:40;100657.00;;;4.00
64960;BMP180;51487;52.266;10.542;2023-02-02T06:25:07;100668.00;;;4.00
64960;BMP180;51487;52.266;10.542;2023-02-02T06:27:33;100675.00;;;3.90
64960;BMP180;51487;52.266;10.542;2023-02-02T06:29:58;100675.00;;;3.90
64960;BMP180;51487;52.266;10.542;2023-02-02T06:32:24;100683.00;;;3.90
64960;BMP180;51487;52.266;10.542;2023-02-02T06:34:49;100680.00;;;3.90
64960;BMP180;51487;52.266;10.542;2023-02-02T06:37:15;100680.00;;;3.90
64960;BMP180;51487;52.266;10.542;2023-02-02T06:39:40;100679.00;;;3.90
64960;BMP180;51487;52.266;10.542;2023-02-02T06:42:06;100686.00;;;3.90
64960;BMP180;51487;52.266;10.542;2023-02-02T06:44:31;100687.00;;;4.00
64960;BMP180;51487;52.266;10.542;2023-02-02T06:46:57;100688.00;;;3.90
64960;BMP180;51487;52.266;10.542;2023-02-02T06:49:23;100695.00;;;3.80
64960;BMP180;51487;52.266;10.542;2023-02-02T06:51:48;100686.00;;;3.90
64960;BMP180;51487;52.266;10.542;2023-02-02T06:54:14;100685.00;;;3.90
64960;BMP180;51487;52.266;10.542;2023-02-02T06:56:39;100691.00;;;3.90
64960;BMP180;51487;52.266;10.542;2023-02-02T06:59:05;100690.00;;;3.80
64960;BMP180;51487;52.266;10.542;2023-02-02T07:01:31;100695.00;;;3.80
64960;BMP180;51487;52.266;10.542;2023-02-02T07:03:56;100698.00;;;3.80
64960;BMP180;51487;52.266;10.542;2023-02-02T07:06:26;100693.00;;;3.80
64960;BMP180;51487;52.266;10.542;2023-02-02T07:08:53;100715.00;;;3.80
64960;BMP180;51487;52.266;10.542;2023-02-02T07:11:19;100712.00;;;3.80
64960;BMP180;51487;52.266;10.542;2023-02-02T07:13:47;100714.00;;;3.90
64960;BMP180;51487;52.266;10.542;2023-02-02T07:16:15;100713.00;;;3.90
64960;BMP180;51487;52.266;10.542;2023-02-02T07:18:41;100719.00;;;3.90
64960;BMP180;51487;52.266;10.542;2023-02-02T07:21:08;100732.00;;;3.90
64960;BMP180;51487;52.266;10.542;2023-02-02T07:23:41;100724.00;;;3.90
64960;BMP180;51487;52.266;10.542;2023-02-02T07:26:08;100730.00;;;3.90
64960;BMP180;51487;52.266;10.542;2023-02-02T07:28:35;100739.00;;;4.00
64960;BMP180;51487;52.266;10.542;2023-02-02T07:33:44;100751.00;;;4.00
64960;BMP180;51487;52.266;10.542;2023-02-02T07:36:11;100753.00;;;4.10
64960;BMP180;51487;52.266;10.542;2023-02-02T07:38:40;100737.00;;;4.10
64960;BMP180;51487;52.266;10.542;2023-02-02T07:41:07;100747.00;;;4.20
64960;BMP180;51487;52.266;10.542;2023-02-02T07:43:32;100757.00;;;4.30
64960;BMP180;51487;52.266;10.542;2023-02-02T07:46:02;100757.00;;;4.40
64960;BMP180;51487;52.266;10.542;2023-02-02T07:48:31;100762.00;;;4.30
64960;BMP180;51487;52.266;10.542;2023-02-02T07:51:05;100755.00;;;4.40
64960;BMP180;51487;52.266;10.542;2023-02-02T07:53:32;100765.00;;;4.50
64960;BMP180;51487;52.266;10.542;2023-02-02T07:56:09;100769.00;;;4.40
64960;BMP180;51487;52.266;10.542;2023-02-02T07:58:39;100762.00;;;4.60
64960;BMP180;51487;52.266;10.542;2023-02-02T08:01:08;100773.00;;;4.50
64960;BMP180;51487;52.266;10.542;2023-02-02T08:03:36;100778.00;;;4.70
64960;BMP180;51487;52.266;10.542;2023-02-02T08:06:08;100776.00;;;4.80
64960;BMP180;51487;52.266;10.542;2023-02-02T08:08:35;100774.00;;;4.90
64960;BMP180;51487;52.266;10.542;2023-02-02T08:11:00;100782.00;;;4.90
64960;BMP180;51487;52.266;10.542;2023-02-02T08:13:26;100789.00;;;4.80
64960;BMP180;51487;52.266;10.542;2023-02-02T08:15:51;100793.00;;;4.90
64960;BMP180;51487;52.266;10.542;2023-02-02T08:18:17;100798.00;;;5.10
64960;BMP180;51487;52.266;10.542;2023-02-02T08:20:42;100800.00;;;5.00
64960;BMP180;51487;52.266;10.542;2023-02-02T08:23:08;100803.00;;;4.90
64960;BMP180;51487;52.266;10.542;2023-02-02T08:25:39;100796.00;;;5.00
64960;BMP180;51487;52.266;10.542;2023-02-02T08:28:05;100793.00;;;209.30
64960;BMP180;51487;52.266;10.542;2023-02-02T08:30:31;172487.00;;;209.30
64960;BMP180;51487;52.266;10.542;2023-02-02T08:32:59;172487.00;;;209.30
64960;BMP180;51487;52.266;10.542;2023-02-02T08:35:24;172487.00;;;209.30
64960;BMP180;51487;52.266;10.542;2023-02-02T08:37:50;172487.00;;;209.30
64960;BMP180;51487;52.266;10.542;2023-02-02T08:40:16;172487.00;;;209.30
64960;BMP180;51487;52.266;10.542;2023-02-02T08:42:41;172487.00;;;209.30
64960;BMP180;51487;52.266;10.542;2023-02-02T08:45:08;172487.00;;;209.30
64960;BMP180;51487;52.266;10.542;2023-02-02T08:47:34;172487.00;;;209.30
64960;BMP180;51487;52.266;10.542;2023-02-02T08:49:59;172487.00;;;209.30
64960;BMP180;51487;52.266;10.542;2023-02-02T08:52:24;172487.00;;;209.30
64960;BMP180;51487;52.266;10.542;2023-02-02T08:54:50;172487.00;;;209.30
64960;BMP180;51487;52.266;10.542;2023-02-02T08:57:15;172487.00;;;209.30
64960;BMP180;51487;52.266;10.542;2023-02-02T08:59:41;172487.00;;;209.30
64960;BMP180;51487;52.266;10.542;2023-02-02T09:02:08;172487.00;;;209.30
64960;BMP180;51487;52.266;10.542;2023-02-02T09:04:37;172487.00;;;209.30
64960;BMP180;51487;52.266;10.542;2023-02-02T09:07:04;172372.00;;;-83.10
64960;BMP180;51487;52.266;10.542;2023-02-02T09:09:31;172374.00;;;209.30
64960;BMP180;51487;52.266;10.542;2023-02-02T09:11:56;172370.00;;;5.40
64960;BMP180;51487;52.266;10.542;2023-02-02T09:14:22;100809.00;;;5.60
64960;BMP180;51487;52.266;10.542;2023-02-02T09:16:47;100828.00;;;5.50
64960;BMP180;51487;52.266;10.542;2023-02-02T09:19:13;100849.00;;;5.60
64960;BMP180;51487;52.266;10.542;2023-02-02T09:21:38;100861.00;;;5.50
64960;BMP180;51487;52.266;10.542;2023-02-02T09:24:10;100871.00;;;5.60
64960;BMP180;51487;52.266;10.542;2023-02-02T09:26:37;100877.00;;;5.50
64960;BMP180;51487;52.266;10.542;2023-02-02T09:29:06;100871.00;;;5.60
64960;BMP180;51487;52.266;10.542;2023-02-02T09:31:36;100870.00;;;5.60
64960;BMP180;51487;52.266;10.542;2023-02-02T09:34:04;100876.00;;;5.80
64960;BMP180;51487;52.266;10.542;2023-02-02T09:36:31;100893.00;;;5.70
64960;BMP180;51487;52.266;10.542;2023-02-02T09:38:57;100882.00;;;5.60
64960;BMP180;51487;52.266;10.542;2023-02-02T09:41:53;100878.00;;;5.70
64960;BMP180;51487;52.266;10.542;2023-02-02T09:44:39;100903.00;;;5.70
64960;BMP180;51487;52.266;10.542;2023-02-02T09:47:36;100895.00;;;5.80
64960;BMP180;51487;52.266;10.542;2023-02-02T09:53:10;100900.00;;;5.60
64960;BMP180;51487;52.266;10.542;2023-02-02T09:56:03;100898.00;;;5.80
64960;BMP180;51487;52.266;10.542;2023-02-02T09:58:38;100907.00;;;6.00
64960;BMP180;51487;52.266;10.542;2023-02-02T10:01:13;100903.00;;;5.70
64960;BMP180;51487;52.266;10.542;2023-02-02T10:06:44;100913.00;;;6.00
64960;BMP180;51487;52.266;10.542;2023-02-02T10:11:59;100924.00;;;6.10
64960;BMP180;51487;52.266;10.542;2023-02-02T10:14:43;100924.00;;;6.20
64960;BMP180;51487;52.266;10.542;2023-02-02T10:17:44;100917.00;;;6.10
64960;BMP180;51487;52.266;10.542;2023-02-02T10:20:35;100926.00;;;6.10
64960;BMP180;51487;52.266;10.542;2023-02-02T10:23:22;100925.00;;;6.20
64960;BMP180;51487;52.266;10.542;2023-02-02T10:29:13;100938.00;;;6.20
64960;BMP180;51487;52.266;10.542;2023-02-02T10:31:41;100932.00;;;6.10
64960;BMP180;51487;52.266;10.542;2023-02-02T10:35:02;100930.00;;;6.30
64960;BMP180;51487;52.266;10.542;2023-02-02T10:37:53;100956.00;;;6.20
64960;BMP180;51487;52.266;10.542;2023-02-02T10:43:32;100955.00;;;5.60
64960;BMP180;51487;52.266;10.542;2023-02-02T10:46:43;100952.00;;;5.80
64960;BMP180;51487;52.266;10.542;2023-02-02T10:49:28;100949.00;;;5.80
64960;BMP180;51487;52.266;10.542;2023-02-02T10:54:50;100977.00;;;5.60
64960;BMP180;51487;52.266;10.542;2023-02-02T11:00:09;100970.00;;;5.10
64960;BMP180;51487;52.266;10.542;2023-02-02T11:02:45;100964.00;;;5.10
64960;BMP180;51487;52.266;10.542;2023-02-02T11:05:24;100971.00;;;5.20
64960;BMP180;51487;52.266;10.542;2023-02-02T11:08:19;100977.00;;;5.00
64960;BMP180;51487;52.266;10.542;2023-02-02T11:10:49;100969.00;;;5.30
64960;BMP180;51487;52.266;10.542;2023-02-02T11:13:41;100965.00;;;5.40
64960;BMP180;51487;52.266;10.542;2023-02-02T11:18:41;100983.00;;;5.60
64960;BMP180;51487;52.266;10.542;2023-02-02T11:21:28;100992.00;;;5.60
64960;BMP180;51487;52.266;10.542;2023-02-02T11:24:05;100992.00;;;5.80
64960;BMP180;51487;52.266;10.542;2023-02-02T11:26:50;100993.00;;;5.90
64960;BMP180;51487;52.266;10.542;2023-02-02T11:29:28;100993.00;;;5.80
64960;BMP180;51487;52.266;10.542;2023-02-02T11:31:57;100985.00;;;5.70
64960;BMP180;51487;52.266;10.542;2023-02-02T11:34:41;100978.00;;;5.80
64960;BMP180;51487;52.266;10.542;2023-02-02T11:37:12;100989.00;;;6.10
64960;BMP180;51487;52.266;10.542;2023-02-02T11:39:45;100993.00;;;6.10
64960;BMP180;51487;52.266;10.542;2023-02-02T11:42:16;100991.00;;;6.20
64960;BMP180;51487;52.266;10.542;2023-02-02T11:44:52;100990.00;;;6.10
64960;BMP180;51487;52.266;10.542;2023-02-02T11:47:28;100997.00;;;6.30
64960;BMP180;51487;52.266;10.542;2023-02-02T11:49:56;100997.00;;;6.10
64960;BMP180;51487;52.266;10.542;2023-02-02T11:52:26;100981.00;;;6.30
64960;BMP180;51487;52.266;10.542;2023-02-02T11:54:56;100949.00;;;6.30
64960;BMP180;51487;52.266;10.542;2023-02-02T11:57:26;100948.00;;;6.40
64960;BMP180;51487;52.266;10.542;2023-02-02T12:00:16;100935.00;;;6.50
64960;BMP180;51487;52.266;10.542;2023-02-02T12:02:50;100947.00;;;6.30
64960;BMP180;51487;52.266;10.542;2023-02-02T12:07:44;100967.00;;;6.70
64960;BMP180;51487;52.266;10.542;2023-02-02T12:10:35;100982.00;;;6.90
64960;BMP180;51487;52.266;10.542;2023-02-02T12:13:48;100981.00;;;6.60
64960;BMP180;51487;52.266;10.542;2023-02-02T12:16:30;100972.00;;;6.60
64960;BMP180;51487;52.266;10.542;2023-02-02T12:19:46;100978.00;;;6.60
64960;BMP180;51487;52.266;10.542;2023-02-02T12:34:07;100989.00;;;6.60
64960;BMP180;51487;52.266;10.542;2023-02-02T12:36:41;100995.00;;;6.40
64960;BMP180;51487;52.266;10.542;2023-02-02T12:39:33;100978.00;;;6.60
64960;BMP180;51487;52.266;10.542;2023-02-02T12:42:42;100986.00;;;6.50
64960;BMP180;51487;52.266;10.542;2023-02-02T12:48:34;100984.00;;;6.70
64960;BMP180;51487;52.266;10.542;2023-02-02T12:51:30;100987.00;;;6.60
64960;BMP180;51487;52.266;10.542;2023-02-02T12:54:23;100990.00;;;6.40
64960;BMP180;51487;52.266;10.542;2023-02-02T13:00:18;101000.00;;;6.50
64960;BMP180;51487;52.266;10.542;2023-02-02T13:09:11;101001.00;;;6.20
64960;BMP180;51487;52.266;10.542;2023-02-02T13:11:45;101004.00;;;6.20
64960;BMP180;51487;52.266;10.542;2023-02-02T13:14:30;101001.00;;;6.10
64960;BMP180;51487;52.266;10.542;2023-02-02T13:17:04;101015.00;;;6.10
64960;BMP180;51487;52.266;10.542;2023-02-02T13:19:39;101008.00;;;6.20
64960;BMP180;51487;52.266;10.542;2023-02-02T13:22:17;101017.00;;;6.30
64960;BMP180;51487;52.266;10.542;2023-02-02T13:24:56;101024.00;;;6.40
64960;BMP180;51487;52.266;10.542;2023-02-02T13:27:25;101014.00;;;6.40
64960;BMP180;51487;52.266;10.542;2023-02-02T13:30:12;101023.00;;;6.70
64960;BMP180;51487;52.266;10.542;2023-02-02T13:32:48;101024.00;;;6.60
64960;BMP180;51487;52.266;10.542;2023-02-02T13:38:28;101029.00;;;6.70
64960;BMP180;51487;52.266;10.542;2023-02-02T13:40:58;101034.00;;;6.60
64960;BMP180;51487;52.266;10.542;2023-02-02T13:49:19;101034.00;;;6.50
64960;BMP180;51487;52.266;10.542;2023-02-02T13:55:04;101027.00;;;6.70
64960;BMP180;51487;52.266;10.542;2023-02-02T14:01:03;101037.00;;;6.50
64960;BMP180;51487;52.266;10.542;2023-02-02T14:03:44;101039.00;;;6.40
64960;BMP180;51487;52.266;10.542;2023-02-02T14:06:19;101045.00;;;6.40
64960;BMP180;51487;52.266;10.542;2023-02-02T14:08:56;101044.00;;;6.50
64960;BMP180;51487;52.266;10.542;2023-02-02T14:11:25;101048.00;;;6.50
64960;BMP180;51487;52.266;10.542;2023-02-02T14:13:56;101047.00;;;6.50
64960;BMP180;51487;52.266;10.542;2023-02-02T14:16:48;101054.00;;;6.50
64960;BMP180;51487;52.266;10.542;2023-02-02T14:22:03;101061.00;;;6.90
64960;BMP180;51487;52.266;10.542;2023-02-02T14:24:49;101065.00;;;6.80
64960;BMP180;51487;52.266;10.542;2023-02-02T14:34:50;101085.00;;;6.60
64960;BMP180;51487;52.266;10.542;2023-02-02T14:48:39;101090.00;;;6.50
64960;BMP180;51487;52.266;10.542;2023-02-02T14:53:55;101094.00;;;6.50
64960;BMP180;51487;52.266;10.542;2023-02-02T14:56:42;101102.00;;;6.50
64960;BMP180;51487;52.266;10.542;2023-02-02T15:04:37;101119.00;;;6.50
64960;BMP180;51487;52.266;10.542;2023-02-02T15:07:35;101121.00;;;6.30
64960;BMP180;51487;52.266;10.542;2023-02-02T15:13:19;101126.00;;;6.40
64960;BMP180;51487;52.266;10.542;2023-02-02T15:15:50;101135.00;;;6.30
64960;BMP180;51487;52.266;10.542;2023-02-02T15:18:28;101148.00;;;6.10
64960;BMP180;51487;52.266;10.542;2023-02-02T15:21:00;101164.00;;;6.10
64960;BMP180;51487;52.266;10.542;2023-02-02T15:23:38;101161.00;;;5.80
64960;BMP180;51487;52.266;10.542;2023-02-02T15:26:20;101168.00;;;5.70
64960;BMP180;51487;52.266;10.542;2023-02-02T15:31:28;101177.00;;;5.60
64960;BMP180;51487;52.266;10.542;2023-02-02T15:34:03;101185.00;;;5.30
64960;BMP180;51487;52.266;10.542;2023-02-02T15:36:43;101184.00;;;5.40
64960;BMP180;51487;52.266;10.542;2023-02-02T15:39:33;101201.00;;;5.20
64960;BMP180;51487;52.266;10.542;2023-02-02T15:42:05;101191.00;;;5.20
64960;BMP180;51487;52.266;10.542;2023-02-02T15:44:56;101202.00;;;5.30
64960;BMP180;51487;52.266;10.542;2023-02-02T15:47:30;101197.00;;;5.30
64960;BMP180;51487;52.266;10.542;2023-02-02T15:50:00;101202.00;;;5.30
64960;BMP180;51487;52.266;10.542;2023-02-02T15:52:45;101198.00;;;5.40
64960;BMP180;51487;52.266;10.542;2023-02-02T15:55:29;101192.00;;;5.50
64960;BMP180;51487;52.266;10.542;2023-02-02T15:57:57;101184.00;;;5.50
64960;BMP180;51487;52.266;10.542;2023-02-02T16:00:25;101183.00;;;5.40
64960;BMP180;51487;52.266;10.542;2023-02-02T16:03:10;101171.00;;;5.40
64960;BMP180;51487;52.266;10.542;2023-02-02T16:05:43;101132.00;;;5.30
64960;BMP180;51487;52.266;10.542;2023-02-02T16:08:16;101163.00;;;5.30
64960;BMP180;51487;52.266;10.542;2023-02-02T16:10:45;101183.00;;;5.20
64960;BMP180;51487;52.266;10.542;2023-02-02T16:13:23;101194.00;;;5.20
64960;BMP180;51487;52.266;10.542;2023-02-02T16:15:55;101189.00;;;5.10
64960;BMP180;51487;52.266;10.542;2023-02-02T16:18:22;101204.00;;;5.20
64960;BMP180;51487;52.266;10.542;2023-02-02T16:20:48;101218.00;;;5.10
64960;BMP180;51487;52.266;10.542;2023-02-02T16:23:21;101213.00;;;5.20
64960;BMP180;51487;52.266;10.542;2023-02-02T16:25:54;101208.00;;;5.20
64960;BMP180;51487;52.266;10.542;2023-02-02T16:28:22;101211.00;;;5.20
64960;BMP180;51487;52.266;10.542;2023-02-02T16:30:49;101238.00;;;5.20
64960;BMP180;51487;52.266;10.542;2023-02-02T16:33:43;101252.00;;;5.30
64960;BMP180;51487;52.266;10.542;2023-02-02T16:36:18;101254.00;;;5.30
64960;BMP180;51487;52.266;10.542;2023-02-02T16:38:49;101257.00;;;5.30
64960;BMP180;51487;52.266;10.542;2023-02-02T16:41:34;101263.00;;;5.20
64960;BMP180;51487;52.266;10.542;2023-02-02T16:44:29;101266.00;;;5.40